createdAt,value
2022-12-03T00:01:41.793Z,71.55
2022-12-03T00:04:13.023Z,71.10
2022-12-03T00:06:42.757Z,71.05
2022-12-03T00:09:12.581Z,70.90
2022-12-03T00:11:42.317Z,70.66
2022-12-03T00:14:12.214Z,71.15
2022-12-03T00:16:41.940Z,71.15
2022-12-03T00:19:11.685Z,70.88
2022-12-03T00:21:41.449Z,70.60
2022-12-03T00:24:11.777Z,70.85
2022-12-03T00:26:41.608Z,70.71
2022-12-03T00:29:11.714Z,70.59
2022-12-03T00:31:43.165Z,70.42
2022-12-03T00:34:13.246Z,70.77
2022-12-03T00:36:42.995Z,71.08
2022-12-03T00:39:12.743Z,70.72
2022-12-03T00:41:42.498Z,70.95
2022-12-03T00:44:12.272Z,71.65
2022-12-03T00:46:42.188Z,70.91
2022-12-03T00:49:12.059Z,71.10
2022-12-03T00:51:41.605Z,71.20
2022-12-03T00:54:12.071Z,71.19
2022-12-03T00:56:41.809Z,71.10
2022-12-03T00:59:11.876Z,70.83
2022-12-03T01:01:41.715Z,70.95
2022-12-03T01:04:11.677Z,70.56
2022-12-03T01:06:41.211Z,71.15
2022-12-03T01:09:10.945Z,71.58
2022-12-03T01:11:41.300Z,71.63
2022-12-03T01:14:14.000Z,72.18
2022-12-03T01:16:44.274Z,72.18
2022-12-03T01:19:15.919Z,71.50
2022-12-03T01:21:48.394Z,71.50
2022-12-03T01:24:20.470Z,71.16
2022-12-03T01:26:50.167Z,71.53
2022-12-03T01:29:19.931Z,71.36
2022-12-03T01:32:07.390Z,71.22
2022-12-03T01:34:37.134Z,70.97
2022-12-03T01:37:06.954Z,71.19
2022-12-03T01:39:36.798Z,71.61
2022-12-03T01:42:10.131Z,71.63
2022-12-03T01:44:41.706Z,70.59
2022-12-03T01:47:18.034Z,70.59
2022-12-03T01:49:50.843Z,71.67
2022-12-03T01:52:23.623Z,72.11
2022-12-03T01:55:02.058Z,71.43
2022-12-03T01:57:37.443Z,71.92
2022-12-03T02:00:15.534Z,71.57
2022-12-03T02:02:46.158Z,71.58
2022-12-03T02:05:33.156Z,71.92
2022-12-03T02:08:03.213Z,71.94
2022-12-03T02:10:37.530Z,70.95
2022-12-03T02:13:09.772Z,71.82
2022-12-03T02:15:41.315Z,71.58
2022-12-03T02:18:11.939Z,71.81
2022-12-03T02:20:50.362Z,72.02
2022-12-03T02:23:23.224Z,72.02
2022-12-03T02:25:53.470Z,71.40
2022-12-03T02:28:23.085Z,71.87
2022-12-03T02:30:52.915Z,71.59
2022-12-03T02:33:22.688Z,71.69
2022-12-03T02:35:52.570Z,72.02
2022-12-03T02:38:25.979Z,72.15
2022-12-03T02:40:59.032Z,71.74
2022-12-03T02:43:28.669Z,71.85
2022-12-03T02:46:01.132Z,72.69
2022-12-03T02:48:34.037Z,72.21
2022-12-03T02:54:38.130Z,72.25
2022-12-03T02:57:08.209Z,71.25
2022-12-03T02:59:38.101Z,70.92
2022-12-03T03:02:10.170Z,71.18
2022-12-03T03:04:40.884Z,71.35
2022-12-03T03:07:11.348Z,71.23
2022-12-03T03:09:41.676Z,71.23
2022-12-03T03:12:12.456Z,71.50
2022-12-03T03:14:42.331Z,71.03
2022-12-03T03:17:12.340Z,71.53
2022-12-03T03:19:42.886Z,71.56
2022-12-03T03:22:13.129Z,71.70
2022-12-03T03:24:42.939Z,71.71
2022-12-03T03:27:12.765Z,71.97
2022-12-03T03:29:42.509Z,71.48
2022-12-03T03:32:13.089Z,71.38
2022-12-03T03:34:42.955Z,71.26
2022-12-03T03:37:12.976Z,71.86
2022-12-03T03:39:42.718Z,71.74
2022-12-03T03:42:12.848Z,71.74
2022-12-03T03:44:42.817Z,71.44
2022-12-03T03:47:12.924Z,71.53
2022-12-03T03:49:43.216Z,71.51
2022-12-03T03:52:13.305Z,70.44
2022-12-03T03:54:43.201Z,71.26
2022-12-03T03:57:13.283Z,71.40
2022-12-03T03:59:43.170Z,70.74
2022-12-03T04:02:24.655Z,70.92
2022-12-03T04:04:55.382Z,70.87
2022-12-03T04:07:25.374Z,70.68
2022-12-03T04:09:55.172Z,70.40
2022-12-03T04:12:42.523Z,70.59
2022-12-03T04:15:11.975Z,70.74
2022-12-03T04:17:41.707Z,70.66
2022-12-03T04:20:13.489Z,70.12
2022-12-03T04:22:43.541Z,70.37
2022-12-03T04:25:30.621Z,69.60
2022-12-03T04:28:19.830Z,70.56
2022-12-03T04:30:49.947Z,70.05
2022-12-03T04:33:37.749Z,70.23
2022-12-03T04:36:10.225Z,70.56
2022-12-03T04:38:39.981Z,70.79
2022-12-03T04:41:10.049Z,70.79
2022-12-03T04:43:41.512Z,70.52
2022-12-03T04:46:11.749Z,70.64
2022-12-03T04:48:41.766Z,70.64
2022-12-03T04:51:11.817Z,71.19
2022-12-03T04:53:46.032Z,71.41
2022-12-03T04:56:12.401Z,70.74
2022-12-03T04:58:42.220Z,71.07
2022-12-03T05:01:12.106Z,70.55
2022-12-03T05:03:41.851Z,70.83
2022-12-03T05:06:11.742Z,71.18
2022-12-03T05:08:41.499Z,71.00
2022-12-03T05:11:12.875Z,70.66
2022-12-03T05:13:43.271Z,70.64
2022-12-03T05:16:13.213Z,71.21
2022-12-03T05:18:42.948Z,70.69
2022-12-03T05:21:13.075Z,70.28
2022-12-03T05:23:43.911Z,70.91
2022-12-03T05:26:13.432Z,70.34
2022-12-03T05:28:43.184Z,70.64
2022-12-03T05:31:13.138Z,71.21
2022-12-03T05:33:44.509Z,71.09
2022-12-03T05:36:14.503Z,71.60
2022-12-03T05:38:44.333Z,71.63
2022-12-03T05:41:31.579Z,70.96
2022-12-03T05:44:01.670Z,71.92
2022-12-03T05:46:32.523Z,71.84
2022-12-03T05:49:02.552Z,71.61
2022-12-03T05:51:32.371Z,70.95
2022-12-03T05:54:02.120Z,71.57
2022-12-03T05:56:31.879Z,71.32
2022-12-03T05:59:01.681Z,71.56
2022-12-03T06:01:31.394Z,72.00
2022-12-03T06:04:01.267Z,72.29
2022-12-03T06:06:31.118Z,72.42
2022-12-03T06:09:01.039Z,72.18
2022-12-03T06:11:32.562Z,71.73
2022-12-03T06:14:02.902Z,72.66
2022-12-03T06:16:32.867Z,72.68
2022-12-03T06:19:02.652Z,72.67
2022-12-03T06:21:32.412Z,72.66
2022-12-03T06:24:02.197Z,72.88
2022-12-03T06:26:31.934Z,72.69
2022-12-03T06:29:01.688Z,72.36
2022-12-03T06:31:31.500Z,73.16
2022-12-03T06:34:01.214Z,73.16
2022-12-03T06:36:31.129Z,73.45
2022-12-03T06:39:00.864Z,72.93
2022-12-03T06:41:30.624Z,72.75
2022-12-03T06:44:00.924Z,73.07
2022-12-03T06:46:30.879Z,72.72
2022-12-03T06:49:01.054Z,73.01
2022-12-03T06:51:30.511Z,72.72
2022-12-03T06:54:00.264Z,72.98
2022-12-03T06:56:35.850Z,73.11
2022-12-03T06:59:01.930Z,72.90
2022-12-03T07:01:31.726Z,73.01
2022-12-03T07:04:01.182Z,72.48
2022-12-03T07:06:31.035Z,72.62
2022-12-03T07:09:00.876Z,72.69
2022-12-03T07:11:33.306Z,73.36
2022-12-03T07:14:05.773Z,73.16
2022-12-03T07:16:36.867Z,73.63
2022-12-03T07:19:07.643Z,73.59
2022-12-03T07:21:37.543Z,72.73
2022-12-03T07:24:09.829Z,73.24
2022-12-03T07:26:39.587Z,73.06
2022-12-03T07:29:09.326Z,73.47
2022-12-03T07:31:39.148Z,72.83
2022-12-03T07:34:11.114Z,74.23
2022-12-03T07:36:40.924Z,74.41
2022-12-03T07:39:10.767Z,73.72
2022-12-03T07:41:40.639Z,73.47
2022-12-03T07:44:14.690Z,73.31
2022-12-03T07:46:44.702Z,73.28
2022-12-03T07:49:14.812Z,73.44
2022-12-03T07:51:46.260Z,72.74
2022-12-03T07:54:16.052Z,74.24
2022-12-03T07:56:45.798Z,73.09
2022-12-03T07:59:16.338Z,73.09
2022-12-03T08:01:46.703Z,74.36
2022-12-03T08:04:17.884Z,74.55
2022-12-03T08:06:48.127Z,74.55
2022-12-03T08:09:17.971Z,74.81
2022-12-03T08:11:49.905Z,74.39
2022-12-03T08:14:21.291Z,74.34
2022-12-03T08:16:51.569Z,73.98
2022-12-03T08:19:22.798Z,75.31
2022-12-03T08:21:57.978Z,75.62
2022-12-03T08:24:24.141Z,75.82
2022-12-03T08:26:53.924Z,75.94
2022-12-03T08:29:23.688Z,75.87
2022-12-03T08:31:55.586Z,75.85
2022-12-03T08:34:28.203Z,74.96
2022-12-03T08:37:01.010Z,74.75
2022-12-03T08:39:33.819Z,74.85
2022-12-03T08:42:29.826Z,74.79
2022-12-03T08:45:02.701Z,74.70
2022-12-03T08:47:32.772Z,74.94
2022-12-03T08:50:05.563Z,74.94
2022-12-03T08:52:36.073Z,74.33
2022-12-03T08:55:30.012Z,75.19
2022-12-03T08:58:00.480Z,74.55
2022-12-03T09:00:30.424Z,74.38
2022-12-03T09:03:01.753Z,74.53
2022-12-03T09:05:35.117Z,74.64
2022-12-03T09:08:06.638Z,73.67
2022-12-03T09:10:36.374Z,74.22
2022-12-03T09:13:06.196Z,74.14
2022-12-03T09:15:35.967Z,74.07
2022-12-03T09:18:06.759Z,73.80
2022-12-03T09:20:36.512Z,73.85
2022-12-03T09:23:06.265Z,73.71
2022-12-03T09:25:36.297Z,73.66
2022-12-03T09:28:08.249Z,73.30
2022-12-03T09:30:38.039Z,72.98
2022-12-03T09:33:07.884Z,73.82
2022-12-03T09:35:37.724Z,73.44
2022-12-03T09:38:08.451Z,73.45
2022-12-03T09:40:39.064Z,73.12
2022-12-03T09:43:09.179Z,73.01
2022-12-03T09:45:39.314Z,73.51
2022-12-03T09:48:12.461Z,73.51
2022-12-03T09:50:43.639Z,74.04
2022-12-03T09:53:22.226Z,73.26
2022-12-03T09:55:52.295Z,73.66
2022-12-03T09:58:23.065Z,73.58
2022-12-03T10:00:53.577Z,73.99
2022-12-03T10:03:29.885Z,74.23
2022-12-03T10:05:58.672Z,74.03
2022-12-03T10:08:32.999Z,74.92
2022-12-03T10:11:02.812Z,73.82
2022-12-03T10:13:35.447Z,73.87
2022-12-03T10:16:08.139Z,74.69
2022-12-03T10:18:41.749Z,74.15
2022-12-03T10:21:20.285Z,74.49
2022-12-03T10:23:55.106Z,74.80
2022-12-03T10:26:25.026Z,74.88
2022-12-03T10:28:56.498Z,74.42
2022-12-03T10:31:29.361Z,74.53
2022-12-03T10:34:02.733Z,74.66
2022-12-03T10:36:33.176Z,74.56
2022-12-03T10:39:17.153Z,74.07
2022-12-03T10:41:47.558Z,73.61
2022-12-03T10:44:22.708Z,73.37
2022-12-03T10:47:11.375Z,73.07
2022-12-03T10:49:42.709Z,72.41
2022-12-03T10:52:22.584Z,72.02
2022-12-03T10:54:51.064Z,72.02
2022-12-03T10:57:21.329Z,72.60
2022-12-03T10:59:51.400Z,71.32
2022-12-03T11:02:23.478Z,71.40
2022-12-03T11:04:54.199Z,71.26
2022-12-03T11:07:26.061Z,70.63
2022-12-03T11:09:55.809Z,70.90
2022-12-03T11:12:28.270Z,71.04
2022-12-03T11:15:01.269Z,70.96
2022-12-03T11:17:42.686Z,70.88
2022-12-03T11:20:28.106Z,71.32
2022-12-03T11:22:59.472Z,70.70
2022-12-03T11:25:32.349Z,70.43
2022-12-03T11:28:17.314Z,70.43
2022-12-03T11:30:54.457Z,70.88
2022-12-03T11:33:26.607Z,71.47
2022-12-03T11:36:08.488Z,70.65
2022-12-03T11:38:53.372Z,70.86
2022-12-03T11:41:30.563Z,71.44
2022-12-03T11:44:03.908Z,71.99
2022-12-03T11:46:43.042Z,72.43
2022-12-03T11:49:35.718Z,71.79
2022-12-03T11:52:25.725Z,71.74
2022-12-03T11:55:04.606Z,71.83
2022-12-03T11:57:37.701Z,71.62
2022-12-03T12:00:11.612Z,72.09
2022-12-03T12:02:44.738Z,71.46
2022-12-03T12:05:35.511Z,72.19
2022-12-03T12:08:08.594Z,72.95
2022-12-03T12:10:43.820Z,72.24
2022-12-03T12:13:34.902Z,72.14
2022-12-03T12:16:08.443Z,72.17
2022-12-03T12:18:54.855Z,70.93
2022-12-03T12:21:49.901Z,70.93
2022-12-03T12:24:42.529Z,71.46
2022-12-03T12:27:18.481Z,71.99
2022-12-03T12:29:56.404Z,72.00
2022-12-03T12:32:32.558Z,72.00
2022-12-03T12:35:05.048Z,71.93
2022-12-03T12:37:38.186Z,71.89
2022-12-03T12:40:15.787Z,71.42
2022-12-03T12:42:46.009Z,71.78
2022-12-03T12:45:18.793Z,71.32
2022-12-03T12:48:00.672Z,71.17
2022-12-03T12:50:33.098Z,71.60
2022-12-03T12:53:22.291Z,71.60
2022-12-03T12:56:03.094Z,71.54
2022-12-03T12:58:34.189Z,71.78
2022-12-03T13:01:07.258Z,71.85
2022-12-03T13:03:40.220Z,71.80
2022-12-03T13:06:15.553Z,72.20
2022-12-03T13:08:48.228Z,72.70
2022-12-03T13:11:36.865Z,72.70
2022-12-03T13:16:54.167Z,72.96
2022-12-03T13:19:31.900Z,72.92
2022-12-03T13:22:12.978Z,73.77
2022-12-03T13:24:47.591Z,73.10
2022-12-03T13:27:25.560Z,72.92
2022-12-03T13:30:04.281Z,72.92
2022-12-03T13:32:36.998Z,73.28
2022-12-03T13:35:27.033Z,73.57
2022-12-03T13:37:58.656Z,73.42
2022-12-03T13:40:31.294Z,73.30
2022-12-03T13:43:02.658Z,72.87
2022-12-03T13:45:40.934Z,73.15
2022-12-03T13:48:26.613Z,73.00
2022-12-03T13:50:58.487Z,74.22
2022-12-03T13:53:37.122Z,74.11
2022-12-03T13:56:24.917Z,74.11
2022-12-03T13:58:54.874Z,74.16
2022-12-03T14:01:24.721Z,73.96
2022-12-03T14:03:54.920Z,73.20
2022-12-03T14:06:26.058Z,73.94
2022-12-03T14:08:55.802Z,74.04
2022-12-03T14:11:43.208Z,73.90
2022-12-03T14:14:14.119Z,73.84
2022-12-03T14:16:43.910Z,74.42
2022-12-03T14:19:14.154Z,74.11
2022-12-03T14:21:43.980Z,74.11
2022-12-03T14:24:13.540Z,74.31
2022-12-03T14:26:43.309Z,73.59
2022-12-03T14:29:13.115Z,73.49
2022-12-03T14:31:42.959Z,74.03
2022-12-03T14:34:12.422Z,74.03
2022-12-03T14:36:42.232Z,73.98
2022-12-03T14:39:12.195Z,74.45
2022-12-03T14:41:59.582Z,74.11
2022-12-03T14:44:29.364Z,74.40
2022-12-03T14:46:59.116Z,74.37
2022-12-03T14:49:29.139Z,74.56
2022-12-03T14:52:02.112Z,74.54
2022-12-03T14:54:32.757Z,74.06
2022-12-03T14:57:02.679Z,73.28
2022-12-03T14:59:32.443Z,73.28
2022-12-03T15:02:02.072Z,73.99
2022-12-03T15:04:32.125Z,73.44
2022-12-03T15:07:02.220Z,74.49
2022-12-03T15:09:31.996Z,74.43
2022-12-03T15:12:01.847Z,74.43
2022-12-03T15:14:31.736Z,74.49
2022-12-03T15:17:01.624Z,73.87
2022-12-03T15:19:31.414Z,74.70
2022-12-03T15:22:01.167Z,74.62
2022-12-03T15:24:31.310Z,74.96
2022-12-03T15:27:01.382Z,74.94
2022-12-03T15:29:32.345Z,75.41
2022-12-03T15:32:03.091Z,74.76
2022-12-03T15:34:32.832Z,74.67
2022-12-03T15:37:02.639Z,75.08
2022-12-03T15:39:33.282Z,74.80
2022-12-03T15:42:03.332Z,73.72
2022-12-03T15:44:33.084Z,73.72
2022-12-03T15:47:02.874Z,73.88
2022-12-03T15:49:32.678Z,74.46
2022-12-03T15:52:02.782Z,73.92
2022-12-03T15:54:32.559Z,73.97
2022-12-03T15:57:02.687Z,73.77
2022-12-03T15:59:32.451Z,73.42
2022-12-03T16:02:02.329Z,73.64
2022-12-03T16:04:32.385Z,73.69
2022-12-03T16:07:02.196Z,74.32
2022-12-03T16:09:32.256Z,74.50
2022-12-03T16:12:02.298Z,73.98
2022-12-03T16:14:32.188Z,74.98
2022-12-03T16:17:02.105Z,73.89
2022-12-03T16:19:31.886Z,73.55
2022-12-03T16:22:03.178Z,73.97
2022-12-03T16:24:32.990Z,73.97
2022-12-03T16:27:02.786Z,73.70
2022-12-03T16:29:32.530Z,73.60
2022-12-03T16:32:02.480Z,73.18
2022-12-03T16:34:32.530Z,73.85
2022-12-03T16:37:02.315Z,73.78
2022-12-03T16:39:33.741Z,73.75
2022-12-03T16:42:04.801Z,74.25
2022-12-03T16:44:36.150Z,74.25
2022-12-03T16:47:05.983Z,74.00
2022-12-03T16:49:36.078Z,73.42
2022-12-03T16:52:08.533Z,73.43
2022-12-03T16:54:38.426Z,73.81
2022-12-03T16:57:08.234Z,73.48
2022-12-03T16:59:38.356Z,73.97
2022-12-03T17:02:12.857Z,73.97
2022-12-03T17:04:42.747Z,74.31
2022-12-03T17:07:12.507Z,73.58
2022-12-03T17:09:42.351Z,72.93
2022-12-03T17:12:13.986Z,73.18
2022-12-03T17:14:43.724Z,73.57
2022-12-03T17:17:13.506Z,74.10
2022-12-03T17:19:43.259Z,73.92
2022-12-03T17:22:14.492Z,74.14
2022-12-03T17:24:45.405Z,73.65
2022-12-03T17:27:15.726Z,73.43
2022-12-03T17:29:45.468Z,72.92
2022-12-03T17:32:15.568Z,73.09
2022-12-03T17:34:45.626Z,73.82
2022-12-03T17:37:15.384Z,73.80
2022-12-03T17:39:45.429Z,72.53
2022-12-03T17:42:15.548Z,73.15
2022-12-03T17:44:45.288Z,73.67
2022-12-03T17:47:15.624Z,73.44
2022-12-03T17:49:45.371Z,73.70
2022-12-03T17:52:16.064Z,73.74
2022-12-03T17:55:10.036Z,74.03
2022-12-03T17:57:17.314Z,73.77
2022-12-03T17:59:47.374Z,73.64
2022-12-03T18:02:19.441Z,73.07
2022-12-03T18:04:49.429Z,72.82
2022-12-03T18:07:19.171Z,72.42
2022-12-03T18:09:48.920Z,73.32
2022-12-03T18:12:18.685Z,73.98
2022-12-03T18:14:48.724Z,73.88
2022-12-03T18:17:18.821Z,73.74
2022-12-03T18:19:48.639Z,73.98
2022-12-03T18:22:18.510Z,73.39
2022-12-03T18:24:51.924Z,73.20
2022-12-03T18:27:22.161Z,73.35
2022-12-03T18:29:52.294Z,73.15
2022-12-03T18:32:30.126Z,73.66
2022-12-03T18:34:54.134Z,73.41
2022-12-03T18:37:27.255Z,73.88
2022-12-03T18:39:58.593Z,73.76
2022-12-03T18:42:28.509Z,73.59
2022-12-03T18:44:58.432Z,73.45
2022-12-03T18:47:29.792Z,73.47
2022-12-03T18:49:59.758Z,73.47
2022-12-03T18:52:29.225Z,73.21
2022-12-03T18:54:59.305Z,73.80
2022-12-03T18:57:29.051Z,73.69
2022-12-03T18:59:58.925Z,73.08
2022-12-03T19:05:00.044Z,73.44
2022-12-03T19:07:29.814Z,73.95
2022-12-03T19:10:00.014Z,73.60
2022-12-03T19:12:29.834Z,73.71
2022-12-03T19:14:59.886Z,73.56
2022-12-03T19:17:29.794Z,73.60
2022-12-03T19:19:59.873Z,74.25
2022-12-03T19:22:30.035Z,73.46
2022-12-03T19:24:59.793Z,73.74
2022-12-03T19:27:31.702Z,73.31
2022-12-03T19:30:01.419Z,73.49
2022-12-03T19:32:30.963Z,74.09
2022-12-03T19:35:02.375Z,74.77
2022-12-03T19:37:35.250Z,74.42
2022-12-03T19:40:10.181Z,74.22
2022-12-03T19:42:40.788Z,74.59
2022-12-03T19:45:10.624Z,74.81
2022-12-03T19:47:40.442Z,74.31
2022-12-03T19:50:11.818Z,73.64
2022-12-03T19:52:41.578Z,73.67
2022-12-03T19:55:11.031Z,74.21
2022-12-03T19:57:41.062Z,74.52
2022-12-03T20:00:13.508Z,74.52
2022-12-03T20:02:43.503Z,74.67
2022-12-03T20:05:13.223Z,73.90
2022-12-03T20:07:43.047Z,73.89
2022-12-03T20:10:14.449Z,74.48
2022-12-03T20:12:44.273Z,74.27
2022-12-03T20:15:15.004Z,73.82
2022-12-03T20:17:44.516Z,74.21
2022-12-03T20:20:14.124Z,74.00
2022-12-03T20:22:43.907Z,74.34
2022-12-03T20:25:14.127Z,74.07
2022-12-03T20:27:43.889Z,73.61
2022-12-03T20:30:15.638Z,73.06
2022-12-03T20:32:45.780Z,73.49
2022-12-03T20:35:15.221Z,73.70
2022-12-03T20:37:44.657Z,73.98
2022-12-03T20:40:15.547Z,73.98
2022-12-03T20:42:49.623Z,73.01
2022-12-03T20:45:19.539Z,73.27
2022-12-03T20:47:49.284Z,74.08
2022-12-03T20:50:18.854Z,74.08
2022-12-03T20:53:09.702Z,73.01
2022-12-03T20:55:19.744Z,73.55
2022-12-03T20:57:50.253Z,73.60
2022-12-03T21:00:20.362Z,73.39
2022-12-03T21:02:50.207Z,72.89
2022-12-03T21:05:19.980Z,73.50
2022-12-03T21:07:51.771Z,72.56
2022-12-03T21:10:36.418Z,73.79
2022-12-03T21:13:06.464Z,73.54
2022-12-03T21:15:36.236Z,72.34
2022-12-03T21:18:06.100Z,73.59
2022-12-03T21:20:44.022Z,72.99
2022-12-03T21:23:14.501Z,73.54
2022-12-03T21:25:44.309Z,73.28
2022-12-03T21:28:14.076Z,74.02
2022-12-03T21:30:44.215Z,73.57
2022-12-03T21:33:14.310Z,73.24
2022-12-03T21:35:44.086Z,73.96
2022-12-03T21:38:14.593Z,74.38
2022-12-03T21:40:44.348Z,73.68
2022-12-03T21:43:14.122Z,73.69
2022-12-03T21:45:44.578Z,73.94
2022-12-03T21:48:14.840Z,73.23
2022-12-03T21:50:45.505Z,73.14
2022-12-03T21:53:15.540Z,72.95
2022-12-03T21:55:45.289Z,73.37
2022-12-03T21:58:16.721Z,73.33
2022-12-03T22:00:46.808Z,73.27
2022-12-03T22:03:16.659Z,73.50
2022-12-03T22:05:46.445Z,73.64
2022-12-03T22:08:17.353Z,73.85
2022-12-03T22:10:47.130Z,73.89
2022-12-03T22:13:16.890Z,73.89
2022-12-03T22:15:46.504Z,74.39
2022-12-03T22:18:16.585Z,74.28
2022-12-03T22:20:46.366Z,74.23
2022-12-03T22:23:16.200Z,74.19
2022-12-03T22:25:46.258Z,74.25
2022-12-03T22:28:16.942Z,73.27
2022-12-03T22:30:47.089Z,73.56
2022-12-03T22:33:16.921Z,72.94
2022-12-03T22:36:01.235Z,73.28
2022-12-03T22:38:32.431Z,73.30
2022-12-03T22:41:07.330Z,73.09
2022-12-03T22:43:37.568Z,73.40
2022-12-03T22:46:10.482Z,73.01
2022-12-03T22:48:41.740Z,73.83
2022-12-03T22:51:14.253Z,73.90
2022-12-03T22:53:44.081Z,73.62
2022-12-03T22:56:17.265Z,73.53
2022-12-03T22:58:47.098Z,73.20
2022-12-03T23:01:37.784Z,73.59
2022-12-03T23:04:09.117Z,74.40
2022-12-03T23:06:39.587Z,73.57
2022-12-03T23:09:09.362Z,73.50
2022-12-03T23:11:39.232Z,73.13
2022-12-03T23:14:11.083Z,73.53
2022-12-03T23:16:41.484Z,73.15
2022-12-03T23:19:11.552Z,73.75
2022-12-03T23:21:41.364Z,73.59
2022-12-03T23:24:13.609Z,73.40
2022-12-03T23:26:43.519Z,73.40
2022-12-03T23:29:13.586Z,73.73
2022-12-03T23:31:43.408Z,74.03
2022-12-03T23:34:14.468Z,74.38
2022-12-03T23:36:44.311Z,74.21
2022-12-03T23:39:14.377Z,73.89
2022-12-03T23:41:44.266Z,74.25
2022-12-03T23:44:15.929Z,73.94
2022-12-03T23:46:45.799Z,73.51
2022-12-03T23:49:15.899Z,74.34
2022-12-03T23:51:45.978Z,73.97
2022-12-03T23:54:15.702Z,74.27
2022-12-03T23:56:45.837Z,74.04
2022-12-03T23:59:15.879Z,73.86
